Grand Prairie, TX (75053)

12:51 AM CST on December 19, 2014 (GMT -0600)
North Central | Change Station
CLOSE
Current Station
Personal Weather Station
Location: Grand Prairie, TX
Elevation: 480 ft
Nearby Weather Stations

Elev 480 ft 32.76 °N, 97.02 °W | Updated 9 seconds ago

Overcast
Overcast
49.8 °F
Feels Like 50 °F
N
0.0
Wind Variable Wind from North
Gusts 0.0 mph

Today
High -- | Low -- °F
--% Chance of Precip.
Yesterday
High -- | Low -- °F
Precip. -- in
7:25 AM 5:25 PM
Waning Crescent, 9% visible
Pressure 30.17 in
Visibility 10.0 miles
Clouds Mostly Cloudy 900 ft
Overcast 2000 ft
Windchill 50 °F
Dew Point 42 °F
Humidity 75%
Rainfall 0.00 in
Snow Depth Not available.
UV 0 out of 12
Pollen 9.00 out of 12
Air Quality Not available.
Flu Activity Not available.
METAR KGPM 190635Z AUTO 03006KT 10SM BKN009 OVC020 08/08 A3017 RMK AO2 T00810075

More Conditions Fewer Conditions

Pressure 30.17 in
Visibility 10.0 miles
Clouds Mostly Cloudy 900 ft
Overcast 2000 ft
Windchill 50 °F
Dew Point 42 °F
Humidity 75%
Rainfall 0.00 in
Snow Depth Not available.
UV 0 out of 12
Pollen 9.00 out of 12
Air Quality Not available.
Flu Activity Not available.
METAR KGPM 190635Z AUTO 03006KT 10SM BKN009 OVC020 08/08 A3017 RMK AO2 T00810075

More Conditions Fewer Conditions

Nowcast | as of 12:16 am CST on December 19, 2014

The northern edge of an area of widespread showers and isolated thunderstorms...will spread northeast to near a Lampasas to Palestine line by 3 am. The rain will be mostly light to moderate though some brief heavy rain and cloud to ground lightning may accompany some of the storms as they move northeast at 15 to 20 mph.

×

10-Day Weather Forecast

Almanac

Astronomy

Dec. 19, 2014 Rise Set
Actual Time
Civil Twilight
Nautical Twilight
Astronomical Twilight
Moon
Length of Visible Light
Length of Day
Tomorrow will be .
, % of the Moon is Illuminated

Today's Extremes

State Highs State Lows

Community

WunderPhotos

Upload Photos

1,778,952 photos uploaded!

WunderBlogs® & News

Nearby

Air Quality

  Air Quality AQ Index Pollutant
Not available.

Snow Depth

Station Depth Elevation

Earthquake Activity

City Distance Mag. Time & Date
Minimum magnitude displayed is 2.5.

Coastal Water Temperatures

Place Temperature

Nearby Weather Stations